sensor_id;sensor_type;location;lat;lon;timestamp;P1;durP1;ratioP1;P2;durP2;ratioP2
52316;SDS011;38725;41.994;21.458;2022-09-23T00:01:56;22.83;;;11.32;;
52316;SDS011;38725;41.994;21.458;2022-09-23T00:04:22;27.98;;;11.77;;
52316;SDS011;38725;41.994;21.458;2022-09-23T00:06:48;26.02;;;12.75;;
52316;SDS011;38725;41.994;21.458;2022-09-23T00:09:14;27.90;;;12.07;;
52316;SDS011;38725;41.994;21.458;2022-09-23T00:11:40;25.33;;;12.00;;
52316;SDS011;38725;41.994;21.458;2022-09-23T00:14:06;24.35;;;11.93;;
52316;SDS011;38725;41.994;21.458;2022-09-23T00:16:33;20.10;;;11.48;;
52316;SDS011;38725;41.994;21.458;2022-09-23T00:19:00;23.85;;;11.30;;
52316;SDS011;38725;41.994;21.458;2022-09-23T00:21:26;22.38;;;9.65;;
52316;SDS011;38725;41.994;21.458;2022-09-23T00:23:53;20.15;;;9.60;;
52316;SDS011;38725;41.994;21.458;2022-09-23T00:26:20;23.40;;;11.52;;
52316;SDS011;38725;41.994;21.458;2022-09-23T00:28:46;20.08;;;9.57;;
52316;SDS011;38725;41.994;21.458;2022-09-23T00:31:17;20.50;;;9.60;;
52316;SDS011;38725;41.994;21.458;2022-09-23T00:33:43;18.88;;;10.60;;
52316;SDS011;38725;41.994;21.458;2022-09-23T00:36:10;27.15;;;10.88;;
52316;SDS011;38725;41.994;21.458;2022-09-23T00:38:37;26.63;;;10.25;;
52316;SDS011;38725;41.994;21.458;2022-09-23T00:41:03;20.02;;;9.13;;
52316;SDS011;38725;41.994;21.458;2022-09-23T00:46:17;17.70;;;9.27;;
52316;SDS011;38725;41.994;21.458;2022-09-23T00:48:44;17.60;;;9.07;;
52316;SDS011;38725;41.994;21.458;2022-09-23T00:51:12;20.00;;;9.55;;
52316;SDS011;38725;41.994;21.458;2022-09-23T00:53:41;20.33;;;9.57;;
52316;SDS011;38725;41.994;21.458;2022-09-23T00:56:08;19.48;;;10.00;;
52316;SDS011;38725;41.994;21.458;2022-09-23T00:58:36;18.60;;;9.20;;
52316;SDS011;38725;41.994;21.458;2022-09-23T01:01:04;17.88;;;9.30;;
52316;SDS011;38725;41.994;21.458;2022-09-23T01:03:30;16.67;;;9.45;;
52316;SDS011;38725;41.994;21.458;2022-09-23T01:05:56;18.98;;;9.25;;
52316;SDS011;38725;41.994;21.458;2022-09-23T01:08:23;19.52;;;10.05;;
52316;SDS011;38725;41.994;21.458;2022-09-23T01:10:55;20.63;;;8.73;;
52316;SDS011;38725;41.994;21.458;2022-09-23T01:13:34;18.60;;;8.65;;
52316;SDS011;38725;41.994;21.458;2022-09-23T01:34:13;13.57;;;7.97;;
52316;SDS011;38725;41.994;21.458;2022-09-23T01:36:42;14.63;;;8.68;;
52316;SDS011;38725;41.994;21.458;2022-09-23T01:44:04;15.73;;;8.05;;
52316;SDS011;38725;41.994;21.458;2022-09-23T01:46:52;15.95;;;8.63;;
52316;SDS011;38725;41.994;21.458;2022-09-23T01:49:24;19.17;;;8.57;;
52316;SDS011;38725;41.994;21.458;2022-09-23T01:52:27;16.73;;;9.15;;
52316;SDS011;38725;41.994;21.458;2022-09-23T01:54:48;17.25;;;8.15;;
52316;SDS011;38725;41.994;21.458;2022-09-23T01:57:24;15.05;;;8.15;;
52316;SDS011;38725;41.994;21.458;2022-09-23T01:59:54;17.90;;;8.93;;
52316;SDS011;38725;41.994;21.458;2022-09-23T02:02:23;13.82;;;8.02;;
52316;SDS011;38725;41.994;21.458;2022-09-23T02:07:23;16.55;;;8.27;;
52316;SDS011;38725;41.994;21.458;2022-09-23T02:09:53;14.88;;;7.80;;
52316;SDS011;38725;41.994;21.458;2022-09-23T02:12:21;19.77;;;8.45;;
52316;SDS011;38725;41.994;21.458;2022-09-23T02:14:57;16.65;;;7.75;;
52316;SDS011;38725;41.994;21.458;2022-09-23T02:17:32;15.10;;;7.63;;
52316;SDS011;38725;41.994;21.458;2022-09-23T02:20:00;15.80;;;7.30;;
52316;SDS011;38725;41.994;21.458;2022-09-23T02:24:54;20.67;;;8.38;;
52316;SDS011;38725;41.994;21.458;2022-09-23T02:27:23;15.27;;;7.78;;
52316;SDS011;38725;41.994;21.458;2022-09-23T02:30:00;14.90;;;8.63;;
52316;SDS011;38725;41.994;21.458;2022-09-23T02:32:30;18.20;;;10.45;;
52316;SDS011;38725;41.994;21.458;2022-09-23T02:40:19;16.65;;;8.73;;
52316;SDS011;38725;41.994;21.458;2022-09-23T02:45:28;19.83;;;9.23;;
52316;SDS011;38725;41.994;21.458;2022-09-23T02:48:02;15.63;;;8.65;;
52316;SDS011;38725;41.994;21.458;2022-09-23T02:50:30;16.92;;;8.35;;
52316;SDS011;38725;41.994;21.458;2022-09-23T02:52:57;17.40;;;8.45;;
52316;SDS011;38725;41.994;21.458;2022-09-23T02:55:23;15.30;;;8.70;;
52316;SDS011;38725;41.994;21.458;2022-09-23T02:57:51;18.80;;;8.30;;
52316;SDS011;38725;41.994;21.458;2022-09-23T03:00:17;15.32;;;7.63;;
52316;SDS011;38725;41.994;21.458;2022-09-23T03:05:26;15.48;;;8.82;;
52316;SDS011;38725;41.994;21.458;2022-09-23T03:08:00;17.83;;;8.00;;
52316;SDS011;38725;41.994;21.458;2022-09-23T03:11:12;14.20;;;7.85;;
52316;SDS011;38725;41.994;21.458;2022-09-23T03:13:24;14.77;;;7.82;;
52316;SDS011;38725;41.994;21.458;2022-09-23T03:18:27;13.82;;;7.32;;
52316;SDS011;38725;41.994;21.458;2022-09-23T03:21:01;15.57;;;8.43;;
52316;SDS011;38725;41.994;21.458;2022-09-23T03:23:30;15.13;;;8.27;;
52316;SDS011;38725;41.994;21.458;2022-09-23T03:25:58;21.83;;;8.65;;
52316;SDS011;38725;41.994;21.458;2022-09-23T03:28:26;14.73;;;8.93;;
52316;SDS011;38725;41.994;21.458;2022-09-23T03:30:53;16.30;;;8.60;;
52316;SDS011;38725;41.994;21.458;2022-09-23T03:33:21;14.50;;;9.15;;
52316;SDS011;38725;41.994;21.458;2022-09-23T03:35:53;13.77;;;8.77;;
52316;SDS011;38725;41.994;21.458;2022-09-23T03:38:39;14.25;;;8.65;;
52316;SDS011;38725;41.994;21.458;2022-09-23T03:41:08;13.80;;;8.52;;
52316;SDS011;38725;41.994;21.458;2022-09-23T03:43:36;16.73;;;8.65;;
52316;SDS011;38725;41.994;21.458;2022-09-23T03:46:02;16.63;;;8.82;;
52316;SDS011;38725;41.994;21.458;2022-09-23T03:48:29;21.15;;;12.57;;
52316;SDS011;38725;41.994;21.458;2022-09-23T03:50:55;15.63;;;8.98;;
52316;SDS011;38725;41.994;21.458;2022-09-23T03:53:21;13.13;;;8.13;;
52316;SDS011;38725;41.994;21.458;2022-09-23T03:55:47;13.73;;;9.05;;
52316;SDS011;38725;41.994;21.458;2022-09-23T03:58:13;14.05;;;8.63;;
52316;SDS011;38725;41.994;21.458;2022-09-23T04:00:40;15.15;;;8.88;;
52316;SDS011;38725;41.994;21.458;2022-09-23T04:03:06;13.70;;;8.15;;
52316;SDS011;38725;41.994;21.458;2022-09-23T04:05:32;15.25;;;7.93;;
52316;SDS011;38725;41.994;21.458;2022-09-23T04:07:59;18.98;;;8.93;;
52316;SDS011;38725;41.994;21.458;2022-09-23T04:10:26;14.60;;;8.63;;
52316;SDS011;38725;41.994;21.458;2022-09-23T04:12:52;16.00;;;9.55;;
52316;SDS011;38725;41.994;21.458;2022-09-23T04:15:18;17.27;;;10.38;;
52316;SDS011;38725;41.994;21.458;2022-09-23T04:17:44;19.45;;;10.07;;
52316;SDS011;38725;41.994;21.458;2022-09-23T04:20:10;25.08;;;10.80;;
52316;SDS011;38725;41.994;21.458;2022-09-23T04:22:36;15.50;;;9.45;;
52316;SDS011;38725;41.994;21.458;2022-09-23T04:25:02;18.55;;;9.82;;
52316;SDS011;38725;41.994;21.458;2022-09-23T04:27:28;16.10;;;10.40;;
52316;SDS011;38725;41.994;21.458;2022-09-23T04:29:54;31.08;;;10.25;;
52316;SDS011;38725;41.994;21.458;2022-09-23T04:32:20;18.63;;;9.75;;
52316;SDS011;38725;41.994;21.458;2022-09-23T04:34:48;18.50;;;9.32;;
52316;SDS011;38725;41.994;21.458;2022-09-23T04:37:14;14.68;;;9.10;;
52316;SDS011;38725;41.994;21.458;2022-09-23T04:39:40;16.52;;;7.93;;
52316;SDS011;38725;41.994;21.458;2022-09-23T04:42:07;16.85;;;9.52;;
52316;SDS011;38725;41.994;21.458;2022-09-23T04:44:33;18.40;;;10.20;;
52316;SDS011;38725;41.994;21.458;2022-09-23T04:46:59;18.88;;;10.20;;
52316;SDS011;38725;41.994;21.458;2022-09-23T04:49:25;20.02;;;9.90;;
52316;SDS011;38725;41.994;21.458;2022-09-23T04:51:51;19.15;;;9.77;;
52316;SDS011;38725;41.994;21.458;2022-09-23T04:54:18;21.23;;;10.88;;
52316;SDS011;38725;41.994;21.458;2022-09-23T04:56:44;18.40;;;9.68;;
52316;SDS011;38725;41.994;21.458;2022-09-23T04:59:10;15.32;;;9.88;;
52316;SDS011;38725;41.994;21.458;2022-09-23T05:01:36;17.73;;;9.88;;
52316;SDS011;38725;41.994;21.458;2022-09-23T05:04:06;18.85;;;9.77;;
52316;SDS011;38725;41.994;21.458;2022-09-23T05:06:34;21.73;;;10.68;;
52316;SDS011;38725;41.994;21.458;2022-09-23T05:09:01;18.88;;;8.23;;
52316;SDS011;38725;41.994;21.458;2022-09-23T05:11:28;15.98;;;9.05;;
52316;SDS011;38725;41.994;21.458;2022-09-23T05:13:55;18.13;;;10.20;;
52316;SDS011;38725;41.994;21.458;2022-09-23T05:16:21;21.42;;;9.60;;
52316;SDS011;38725;41.994;21.458;2022-09-23T05:18:48;20.75;;;10.35;;
52316;SDS011;38725;41.994;21.458;2022-09-23T05:21:18;25.20;;;11.57;;
52316;SDS011;38725;41.994;21.458;2022-09-23T05:23:48;18.50;;;10.60;;
52316;SDS011;38725;41.994;21.458;2022-09-23T05:26:16;23.17;;;11.18;;
52316;SDS011;38725;41.994;21.458;2022-09-23T05:28:42;20.02;;;10.27;;
52316;SDS011;38725;41.994;21.458;2022-09-23T05:31:09;18.63;;;10.88;;
52316;SDS011;38725;41.994;21.458;2022-09-23T05:33:39;19.85;;;10.88;;
52316;SDS011;38725;41.994;21.458;2022-09-23T05:36:05;17.08;;;10.27;;
52316;SDS011;38725;41.994;21.458;2022-09-23T05:38:32;23.10;;;10.57;;
52316;SDS011;38725;41.994;21.458;2022-09-23T05:40:59;22.40;;;9.98;;
52316;SDS011;38725;41.994;21.458;2022-09-23T05:43:25;17.77;;;9.68;;
52316;SDS011;38725;41.994;21.458;2022-09-23T05:45:53;16.88;;;8.73;;
52316;SDS011;38725;41.994;21.458;2022-09-23T05:48:25;17.38;;;9.50;;
52316;SDS011;38725;41.994;21.458;2022-09-23T05:50:51;13.63;;;7.32;;
52316;SDS011;38725;41.994;21.458;2022-09-23T05:53:18;11.75;;;6.95;;
52316;SDS011;38725;41.994;21.458;2022-09-23T05:55:44;13.07;;;7.10;;
52316;SDS011;38725;41.994;21.458;2022-09-23T05:58:11;13.43;;;7.10;;
52316;SDS011;38725;41.994;21.458;2022-09-23T06:00:40;14.77;;;7.40;;
52316;SDS011;38725;41.994;21.458;2022-09-23T06:03:10;18.02;;;7.85;;
52316;SDS011;38725;41.994;21.458;2022-09-23T06:05:37;16.88;;;8.65;;
52316;SDS011;38725;41.994;21.458;2022-09-23T06:08:03;17.42;;;8.98;;
52316;SDS011;38725;41.994;21.458;2022-09-23T06:10:29;17.80;;;9.23;;
52316;SDS011;38725;41.994;21.458;2022-09-23T06:12:55;22.92;;;9.80;;
52316;SDS011;38725;41.994;21.458;2022-09-23T06:15:21;20.20;;;9.27;;
52316;SDS011;38725;41.994;21.458;2022-09-23T06:17:48;16.15;;;8.63;;
52316;SDS011;38725;41.994;21.458;2022-09-23T06:20:14;30.02;;;9.52;;
52316;SDS011;38725;41.994;21.458;2022-09-23T06:22:40;19.10;;;9.48;;
52316;SDS011;38725;41.994;21.458;2022-09-23T06:25:06;21.35;;;8.07;;
52316;SDS011;38725;41.994;21.458;2022-09-23T06:27:32;17.55;;;8.57;;
52316;SDS011;38725;41.994;21.458;2022-09-23T06:29:58;24.95;;;10.00;;
52316;SDS011;38725;41.994;21.458;2022-09-23T06:32:24;16.33;;;9.77;;
52316;SDS011;38725;41.994;21.458;2022-09-23T06:34:50;21.30;;;9.63;;
52316;SDS011;38725;41.994;21.458;2022-09-23T06:37:16;19.15;;;9.65;;
52316;SDS011;38725;41.994;21.458;2022-09-23T06:39:43;21.42;;;9.75;;
52316;SDS011;38725;41.994;21.458;2022-09-23T06:42:09;19.90;;;8.68;;
52316;SDS011;38725;41.994;21.458;2022-09-23T06:44:35;17.52;;;8.32;;
52316;SDS011;38725;41.994;21.458;2022-09-23T06:47:01;18.45;;;7.97;;
52316;SDS011;38725;41.994;21.458;2022-09-23T06:49:27;16.88;;;8.73;;
52316;SDS011;38725;41.994;21.458;2022-09-23T06:51:53;14.50;;;8.35;;
52316;SDS011;38725;41.994;21.458;2022-09-23T06:54:20;13.63;;;7.32;;
52316;SDS011;38725;41.994;21.458;2022-09-23T06:56:46;12.00;;;7.82;;
52316;SDS011;38725;41.994;21.458;2022-09-23T06:59:12;16.17;;;6.65;;
52316;SDS011;38725;41.994;21.458;2022-09-23T07:01:41;14.75;;;7.43;;
52316;SDS011;38725;41.994;21.458;2022-09-23T07:04:09;14.13;;;8.25;;
52316;SDS011;38725;41.994;21.458;2022-09-23T07:06:35;11.48;;;6.75;;
52316;SDS011;38725;41.994;21.458;2022-09-23T07:09:01;8.88;;;6.47;;
52316;SDS011;38725;41.994;21.458;2022-09-23T07:11:28;14.25;;;7.80;;
52316;SDS011;38725;41.994;21.458;2022-09-23T07:13:54;12.43;;;6.82;;
52316;SDS011;38725;41.994;21.458;2022-09-23T07:16:20;14.00;;;7.32;;
52316;SDS011;38725;41.994;21.458;2022-09-23T07:18:46;14.07;;;7.05;;
52316;SDS011;38725;41.994;21.458;2022-09-23T07:21:13;10.65;;;6.50;;
52316;SDS011;38725;41.994;21.458;2022-09-23T07:23:43;14.20;;;6.47;;
52316;SDS011;38725;41.994;21.458;2022-09-23T07:26:10;12.45;;;6.35;;
52316;SDS011;38725;41.994;21.458;2022-09-23T07:28:37;11.98;;;5.68;;
52316;SDS011;38725;41.994;21.458;2022-09-23T07:31:08;8.55;;;6.00;;
52316;SDS011;38725;41.994;21.458;2022-09-23T07:33:34;11.60;;;6.65;;
52316;SDS011;38725;41.994;21.458;2022-09-23T07:36:07;10.07;;;5.70;;
52316;SDS011;38725;41.994;21.458;2022-09-23T07:38:34;8.98;;;5.22;;
52316;SDS011;38725;41.994;21.458;2022-09-23T07:41:04;17.52;;;5.68;;
52316;SDS011;38725;41.994;21.458;2022-09-23T07:43:30;11.63;;;5.15;;
52316;SDS011;38725;41.994;21.458;2022-09-23T07:46:00;13.18;;;4.78;;
52316;SDS011;38725;41.994;21.458;2022-09-23T07:48:27;11.02;;;4.80;;
52316;SDS011;38725;41.994;21.458;2022-09-23T07:50:54;9.93;;;4.90;;
52316;SDS011;38725;41.994;21.458;2022-09-23T07:53:20;10.02;;;4.53;;
52316;SDS011;38725;41.994;21.458;2022-09-23T07:55:54;11.05;;;4.30;;
52316;SDS011;38725;41.994;21.458;2022-09-23T07:58:21;9.57;;;3.97;;
52316;SDS011;38725;41.994;21.458;2022-09-23T08:00:47;7.93;;;3.67;;
52316;SDS011;38725;41.994;21.458;2022-09-23T08:03:14;6.00;;;3.20;;
52316;SDS011;38725;41.994;21.458;2022-09-23T08:05:41;6.35;;;3.00;;
52316;SDS011;38725;41.994;21.458;2022-09-23T08:08:07;4.50;;;2.85;;
52316;SDS011;38725;41.994;21.458;2022-09-23T08:10:33;2.60;;;1.52;;
52316;SDS011;38725;41.994;21.458;2022-09-23T08:12:59;24.52;;;3.33;;
52316;SDS011;38725;41.994;21.458;2022-09-23T08:15:27;4.53;;;2.08;;
52316;SDS011;38725;41.994;21.458;2022-09-23T08:17:53;5.47;;;2.58;;
52316;SDS011;38725;41.994;21.458;2022-09-23T08:20:19;5.75;;;2.30;;
52316;SDS011;38725;41.994;21.458;2022-09-23T08:23:04;5.85;;;2.10;;
52316;SDS011;38725;41.994;21.458;2022-09-23T08:25:31;5.68;;;2.60;;
52316;SDS011;38725;41.994;21.458;2022-09-23T08:27:57;4.97;;;2.03;;
52316;SDS011;38725;41.994;21.458;2022-09-23T08:30:23;5.53;;;2.60;;
52316;SDS011;38725;41.994;21.458;2022-09-23T08:32:50;3.28;;;1.70;;
52316;SDS011;38725;41.994;21.458;2022-09-23T08:35:16;6.18;;;2.00;;
52316;SDS011;38725;41.994;21.458;2022-09-23T08:37:43;3.92;;;1.95;;
52316;SDS011;38725;41.994;21.458;2022-09-23T08:40:09;6.40;;;1.80;;
52316;SDS011;38725;41.994;21.458;2022-09-23T08:42:35;3.95;;;1.85;;
52316;SDS011;38725;41.994;21.458;2022-09-23T08:45:03;3.00;;;1.83;;
52316;SDS011;38725;41.994;21.458;2022-09-23T08:50:12;7.47;;;2.55;;
52316;SDS011;38725;41.994;21.458;2022-09-23T08:55:17;2.03;;;1.48;;
52316;SDS011;38725;41.994;21.458;2022-09-23T09:00:20;2.00;;;1.50;;
52316;SDS011;38725;41.994;21.458;2022-09-23T09:02:47;3.53;;;1.70;;
52316;SDS011;38725;41.994;21.458;2022-09-23T09:05:15;2.47;;;1.60;;
52316;SDS011;38725;41.994;21.458;2022-09-23T09:07:43;1.70;;;1.50;;
52316;SDS011;38725;41.994;21.458;2022-09-23T09:12:45;4.97;;;1.50;;
52316;SDS011;38725;41.994;21.458;2022-09-23T09:15:14;2.58;;;1.65;;
52316;SDS011;38725;41.994;21.458;2022-09-23T09:25:50;3.78;;;1.70;;
52316;SDS011;38725;41.994;21.458;2022-09-23T09:27:56;2.97;;;1.70;;
52316;SDS011;38725;41.994;21.458;2022-09-23T09:30:23;12.35;;;2.33;;
52316;SDS011;38725;41.994;21.458;2022-09-23T09:33:02;3.22;;;1.90;;
52316;SDS011;38725;41.994;21.458;2022-09-23T09:38:02;3.88;;;1.55;;
52316;SDS011;38725;41.994;21.458;2022-09-23T09:40:30;2.83;;;1.67;;
52316;SDS011;38725;41.994;21.458;2022-09-23T09:42:56;3.47;;;2.08;;
52316;SDS011;38725;41.994;21.458;2022-09-23T09:45:25;2.10;;;1.67;;
52316;SDS011;38725;41.994;21.458;2022-09-23T09:48:10;3.40;;;1.75;;
52316;SDS011;38725;41.994;21.458;2022-09-23T09:50:48;6.18;;;1.98;;
52316;SDS011;38725;41.994;21.458;2022-09-23T09:55:56;5.03;;;2.15;;
52316;SDS011;38725;41.994;21.458;2022-09-23T09:58:23;5.25;;;2.20;;
52316;SDS011;38725;41.994;21.458;2022-09-23T10:00:50;7.18;;;2.20;;
52316;SDS011;38725;41.994;21.458;2022-09-23T10:03:23;2.97;;;2.13;;
52316;SDS011;38725;41.994;21.458;2022-09-23T10:05:50;6.68;;;2.22;;
52316;SDS011;38725;41.994;21.458;2022-09-23T10:13:20;3.20;;;1.80;;
52316;SDS011;38725;41.994;21.458;2022-09-23T10:15:51;6.45;;;2.15;;
52316;SDS011;38725;41.994;21.458;2022-09-23T10:21:00;2.67;;;2.08;;
52316;SDS011;38725;41.994;21.458;2022-09-23T10:23:27;3.97;;;2.40;;
52316;SDS011;38725;41.994;21.458;2022-09-23T10:25:57;3.47;;;2.25;;
52316;SDS011;38725;41.994;21.458;2022-09-23T10:31:13;2.50;;;2.13;;
52316;SDS011;38725;41.994;21.458;2022-09-23T10:33:43;2.97;;;1.90;;
52316;SDS011;38725;41.994;21.458;2022-09-23T10:36:13;3.72;;;1.98;;
52316;SDS011;38725;41.994;21.458;2022-09-23T10:38:39;3.38;;;1.80;;
52316;SDS011;38725;41.994;21.458;2022-09-23T10:41:07;3.05;;;1.90;;
52316;SDS011;38725;41.994;21.458;2022-09-23T11:13:22;4.72;;;1.58;;
52316;SDS011;38725;41.994;21.458;2022-09-23T11:20:44;2.30;;;1.77;;
52316;SDS011;38725;41.994;21.458;2022-09-23T11:23:27;1.52;;;1.42;;
52316;SDS011;38725;41.994;21.458;2022-09-23T11:31:36;3.13;;;1.77;;
52316;SDS011;38725;41.994;21.458;2022-09-23T11:36:33;12.90;;;2.25;;
52316;SDS011;38725;41.994;21.458;2022-09-23T11:39:01;5.13;;;1.90;;
52316;SDS011;38725;41.994;21.458;2022-09-23T11:41:33;3.08;;;2.13;;
52316;SDS011;38725;41.994;21.458;2022-09-23T11:46:41;5.30;;;1.85;;
52316;SDS011;38725;41.994;21.458;2022-09-23T11:57:00;5.63;;;1.95;;
52316;SDS011;38725;41.994;21.458;2022-09-23T12:02:01;3.28;;;1.90;;
52316;SDS011;38725;41.994;21.458;2022-09-23T12:04:30;3.55;;;1.90;;
52316;SDS011;38725;41.994;21.458;2022-09-23T12:09:26;2.70;;;1.67;;
52316;SDS011;38725;41.994;21.458;2022-09-23T12:11:58;3.70;;;2.13;;
52316;SDS011;38725;41.994;21.458;2022-09-23T12:14:29;3.40;;;2.00;;
52316;SDS011;38725;41.994;21.458;2022-09-23T12:17:18;2.70;;;1.90;;
52316;SDS011;38725;41.994;21.458;2022-09-23T12:22:29;2.42;;;1.70;;
52316;SDS011;38725;41.994;21.458;2022-09-23T12:27:43;2.65;;;1.90;;
52316;SDS011;38725;41.994;21.458;2022-09-23T12:30:20;2.65;;;2.10;;
52316;SDS011;38725;41.994;21.458;2022-09-23T12:32:46;5.80;;;1.98;;
52316;SDS011;38725;41.994;21.458;2022-09-23T12:35:45;4.18;;;1.88;;
52316;SDS011;38725;41.994;21.458;2022-09-23T12:38:11;3.67;;;1.80;;
52316;SDS011;38725;41.994;21.458;2022-09-23T12:40:37;2.67;;;1.95;;
52316;SDS011;38725;41.994;21.458;2022-09-23T12:43:18;5.05;;;2.10;;
52316;SDS011;38725;41.994;21.458;2022-09-23T12:45:46;3.28;;;2.42;;
52316;SDS011;38725;41.994;21.458;2022-09-23T12:50:45;3.30;;;1.98;;
52316;SDS011;38725;41.994;21.458;2022-09-23T12:55:57;4.28;;;2.13;;
52316;SDS011;38725;41.994;21.458;2022-09-23T13:01:22;3.08;;;1.90;;
52316;SDS011;38725;41.994;21.458;2022-09-23T13:03:49;4.10;;;2.03;;
52316;SDS011;38725;41.994;21.458;2022-09-23T13:06:37;6.18;;;1.90;;
52316;SDS011;38725;41.994;21.458;2022-09-23T13:09:14;6.45;;;1.83;;
52316;SDS011;38725;41.994;21.458;2022-09-23T13:11:41;6.47;;;2.42;;
52316;SDS011;38725;41.994;21.458;2022-09-23T13:14:09;5.00;;;2.20;;
52316;SDS011;38725;41.994;21.458;2022-09-23T13:16:41;6.32;;;2.92;;
52316;SDS011;38725;41.994;21.458;2022-09-23T13:19:50;5.30;;;2.10;;
52316;SDS011;38725;41.994;21.458;2022-09-23T13:26:53;2.40;;;1.70;;
52316;SDS011;38725;41.994;21.458;2022-09-23T13:29:23;2.47;;;1.85;;
52316;SDS011;38725;41.994;21.458;2022-09-23T13:31:50;1.58;;;1.48;;
52316;SDS011;38725;41.994;21.458;2022-09-23T13:34:18;5.10;;;1.75;;
52316;SDS011;38725;41.994;21.458;2022-09-23T13:36:45;2.05;;;1.55;;
52316;SDS011;38725;41.994;21.458;2022-09-23T13:39:12;2.50;;;1.50;;
52316;SDS011;38725;41.994;21.458;2022-09-23T13:41:39;4.72;;;1.90;;
52316;SDS011;38725;41.994;21.458;2022-09-23T13:44:08;3.10;;;1.80;;
52316;SDS011;38725;41.994;21.458;2022-09-23T13:46:41;3.60;;;1.80;;
52316;SDS011;38725;41.994;21.458;2022-09-23T13:49:20;2.38;;;1.85;;
52316;SDS011;38725;41.994;21.458;2022-09-23T13:51:48;2.97;;;1.95;;
52316;SDS011;38725;41.994;21.458;2022-09-23T13:54:33;4.90;;;1.90;;
52316;SDS011;38725;41.994;21.458;2022-09-23T13:57:00;7.60;;;2.03;;
52316;SDS011;38725;41.994;21.458;2022-09-23T13:59:35;4.80;;;1.83;;
52316;SDS011;38725;41.994;21.458;2022-09-23T14:04:27;4.15;;;1.50;;
52316;SDS011;38725;41.994;21.458;2022-09-23T14:06:53;2.38;;;1.73;;
52316;SDS011;38725;41.994;21.458;2022-09-23T14:09:26;3.78;;;1.70;;
52316;SDS011;38725;41.994;21.458;2022-09-23T14:11:54;9.70;;;3.00;;
52316;SDS011;38725;41.994;21.458;2022-09-23T14:14:21;5.45;;;2.22;;
52316;SDS011;38725;41.994;21.458;2022-09-23T14:16:47;2.83;;;1.80;;
52316;SDS011;38725;41.994;21.458;2022-09-23T14:19:17;2.53;;;1.83;;
52316;SDS011;38725;41.994;21.458;2022-09-23T14:21:46;2.67;;;2.00;;
52316;SDS011;38725;41.994;21.458;2022-09-23T14:24:17;5.38;;;2.20;;
52316;SDS011;38725;41.994;21.458;2022-09-23T14:29:33;3.25;;;2.15;;
52316;SDS011;38725;41.994;21.458;2022-09-23T14:32:05;2.97;;;2.28;;
52316;SDS011;38725;41.994;21.458;2022-09-23T14:40:18;4.55;;;2.20;;
52316;SDS011;38725;41.994;21.458;2022-09-23T14:42:48;2.42;;;1.85;;
52316;SDS011;38725;41.994;21.458;2022-09-23T14:45:19;1.95;;;1.83;;
52316;SDS011;38725;41.994;21.458;2022-09-23T14:47:50;3.33;;;2.40;;
52316;SDS011;38725;41.994;21.458;2022-09-23T14:50:21;4.85;;;2.00;;
52316;SDS011;38725;41.994;21.458;2022-09-23T14:53:05;3.63;;;2.17;;
52316;SDS011;38725;41.994;21.458;2022-09-23T14:55:51;3.88;;;2.08;;
52316;SDS011;38725;41.994;21.458;2022-09-23T14:58:18;3.42;;;2.10;;
52316;SDS011;38725;41.994;21.458;2022-09-23T15:00:56;3.53;;;2.55;;
52316;SDS011;38725;41.994;21.458;2022-09-23T15:03:23;3.88;;;2.08;;
52316;SDS011;38725;41.994;21.458;2022-09-23T15:05:55;5.82;;;2.30;;
52316;SDS011;38725;41.994;21.458;2022-09-23T15:08:25;4.78;;;2.50;;
52316;SDS011;38725;41.994;21.458;2022-09-23T15:10:52;5.72;;;2.90;;
52316;SDS011;38725;41.994;21.458;2022-09-23T15:13:19;2.70;;;2.00;;
52316;SDS011;38725;41.994;21.458;2022-09-23T15:15:45;3.80;;;2.72;;
52316;SDS011;38725;41.994;21.458;2022-09-23T15:18:16;4.18;;;2.30;;
52316;SDS011;38725;41.994;21.458;2022-09-23T15:26:07;3.22;;;2.67;;
52316;SDS011;38725;41.994;21.458;2022-09-23T15:28:34;3.38;;;2.40;;
52316;SDS011;38725;41.994;21.458;2022-09-23T15:31:00;3.25;;;2.60;;
52316;SDS011;38725;41.994;21.458;2022-09-23T15:33:27;3.28;;;2.65;;
52316;SDS011;38725;41.994;21.458;2022-09-23T15:35:53;5.32;;;2.80;;
52316;SDS011;38725;41.994;21.458;2022-09-23T15:38:20;3.38;;;2.60;;
52316;SDS011;38725;41.994;21.458;2022-09-23T15:40:46;3.53;;;2.40;;
52316;SDS011;38725;41.994;21.458;2022-09-23T15:45:46;4.20;;;2.50;;
52316;SDS011;38725;41.994;21.458;2022-09-23T15:48:14;3.00;;;2.70;;
52316;SDS011;38725;41.994;21.458;2022-09-23T15:50:41;9.57;;;3.35;;
52316;SDS011;38725;41.994;21.458;2022-09-23T15:53:16;6.20;;;3.20;;
52316;SDS011;38725;41.994;21.458;2022-09-23T15:55:43;9.27;;;3.05;;
52316;SDS011;38725;41.994;21.458;2022-09-23T15:58:09;4.75;;;2.97;;
52316;SDS011;38725;41.994;21.458;2022-09-23T16:00:35;5.10;;;2.97;;
52316;SDS011;38725;41.994;21.458;2022-09-23T16:03:02;4.38;;;3.38;;
52316;SDS011;38725;41.994;21.458;2022-09-23T16:08:01;6.43;;;3.17;;
52316;SDS011;38725;41.994;21.458;2022-09-23T16:10:27;6.60;;;3.88;;
52316;SDS011;38725;41.994;21.458;2022-09-23T16:12:55;7.18;;;3.67;;
52316;SDS011;38725;41.994;21.458;2022-09-23T16:15:22;18.95;;;3.80;;
52316;SDS011;38725;41.994;21.458;2022-09-23T16:17:48;6.65;;;3.45;;
52316;SDS011;38725;41.994;21.458;2022-09-23T16:20:14;6.03;;;3.30;;
52316;SDS011;38725;41.994;21.458;2022-09-23T16:23:03;8.35;;;4.03;;
52316;SDS011;38725;41.994;21.458;2022-09-23T16:25:28;7.35;;;4.20;;
52316;SDS011;38725;41.994;21.458;2022-09-23T16:27:55;7.15;;;4.03;;
52316;SDS011;38725;41.994;21.458;2022-09-23T16:30:23;5.78;;;3.70;;
52316;SDS011;38725;41.994;21.458;2022-09-23T16:32:50;7.20;;;3.80;;
52316;SDS011;38725;41.994;21.458;2022-09-23T16:35:17;6.53;;;3.60;;
52316;SDS011;38725;41.994;21.458;2022-09-23T16:37:44;6.47;;;3.50;;
52316;SDS011;38725;41.994;21.458;2022-09-23T16:40:11;6.97;;;4.22;;
52316;SDS011;38725;41.994;21.458;2022-09-23T16:42:39;6.80;;;3.55;;
52316;SDS011;38725;41.994;21.458;2022-09-23T16:45:05;6.38;;;3.85;;
52316;SDS011;38725;41.994;21.458;2022-09-23T16:47:31;8.20;;;3.50;;
52316;SDS011;38725;41.994;21.458;2022-09-23T16:49:57;6.07;;;3.38;;
52316;SDS011;38725;41.994;21.458;2022-09-23T16:52:23;8.82;;;3.70;;
52316;SDS011;38725;41.994;21.458;2022-09-23T16:54:49;4.97;;;3.58;;
52316;SDS011;38725;41.994;21.458;2022-09-23T16:57:16;7.20;;;3.63;;
52316;SDS011;38725;41.994;21.458;2022-09-23T16:59:42;4.88;;;3.30;;
52316;SDS011;38725;41.994;21.458;2022-09-23T17:02:26;6.15;;;3.35;;
52316;SDS011;38725;41.994;21.458;2022-09-23T17:05:11;7.50;;;3.50;;
52316;SDS011;38725;41.994;21.458;2022-09-23T17:07:40;6.07;;;3.55;;
52316;SDS011;38725;41.994;21.458;2022-09-23T17:10:06;8.95;;;4.05;;
52316;SDS011;38725;41.994;21.458;2022-09-23T17:12:32;5.93;;;3.30;;
52316;SDS011;38725;41.994;21.458;2022-09-23T17:14:59;5.90;;;3.38;;
52316;SDS011;38725;41.994;21.458;2022-09-23T17:17:25;7.82;;;3.45;;
52316;SDS011;38725;41.994;21.458;2022-09-23T17:19:52;6.57;;;3.70;;
52316;SDS011;38725;41.994;21.458;2022-09-23T17:22:18;8.18;;;4.03;;
52316;SDS011;38725;41.994;21.458;2022-09-23T17:24:44;8.10;;;3.78;;
52316;SDS011;38725;41.994;21.458;2022-09-23T17:27:11;7.82;;;3.30;;
52316;SDS011;38725;41.994;21.458;2022-09-23T17:29:39;4.75;;;3.40;;
52316;SDS011;38725;41.994;21.458;2022-09-23T17:32:05;5.45;;;3.40;;